Time;durP1;ratioP1;P1;durP2;ratioP2;P2;SDS_P1;SDS_P2;PMS_P1;PMS_P2;Temp;Humidity;BMP_temperature;BMP_pressure;BME280_temperature;BME280_humidity;BME280_pressure;Samples;Min_cycle;Max_cycle;Signal;HPM_P1;HPM_P2
2021/09/14 00:02:26;;;;;;;9.43;6.13;;;;;;;;;;10323005;28;20053;-63
2021/09/14 00:07:25;;;;;;;13.60;6.80;;;;;;;;;;10322868;28;20087;-64
2021/09/14 00:12:23;;;;;;;11.50;5.50;;;;;;;;;;10322752;28;20048;-64
2021/09/14 00:17:22;;;;;;;9.25;5.90;;;;;;;;;;10322540;28;20041;-64
2021/09/14 00:22:21;;;;;;;7.40;5.07;;;;;;;;;;10322334;28;20041;-64
2021/09/14 00:27:20;;;;;;;9.27;5.90;;;;;;;;;;10354071;28;20051;-64
2021/09/14 00:32:18;;;;;;;9.50;5.78;;;;;;;;;;10322187;28;20417;-64
2021/09/14 00:37:17;;;;;;;9.77;5.60;;;;;;;;;;10320099;28;20064;-64
2021/09/14 00:42:17;;;;;;;10.75;6.57;;;;;;;;;;10321707;28;20079;-65
2021/09/14 00:47:16;;;;;;;8.93;5.97;;;;;;;;;;10319621;28;20055;-66
2021/09/14 00:52:14;;;;;;;14.20;5.72;;;;;;;;;;10322210;28;20290;-65
2021/09/14 00:57:12;;;;;;;11.93;5.53;;;;;;;;;;10329306;28;20044;-66
2021/09/14 01:02:12;;;;;;;9.32;5.13;;;;;;;;;;10320677;28;20067;-65
2021/09/14 01:07:11;;;;;;;8.95;6.28;;;;;;;;;;10321096;28;20087;-63
2021/09/14 01:12:10;;;;;;;10.60;6.47;;;;;;;;;;10320828;28;20514;-62
2021/09/14 01:17:08;;;;;;;12.57;5.70;;;;;;;;;;10319550;28;20056;-64
2021/09/14 01:22:10;;;;;;;12.15;5.53;;;;;;;;;;10320196;28;20047;-64
2021/09/14 01:27:10;;;;;;;10.52;5.80;;;;;;;;;;10318876;28;20107;-64
2021/09/14 01:32:10;;;;;;;10.10;6.95;;;;;;;;;;10318574;28;20071;-64
2021/09/14 01:37:09;;;;;;;13.63;6.57;;;;;;;;;;10318465;28;20045;-64
2021/09/14 01:42:08;;;;;;;8.73;6.55;;;;;;;;;;10317834;28;20052;-64
2021/09/14 01:47:07;;;;;;;10.90;7.72;;;;;;;;;;10317561;28;20055;-64
2021/09/14 01:52:06;;;;;;;11.40;7.18;;;;;;;;;;10318585;28;20063;-64
2021/09/14 01:57:05;;;;;;;11.18;7.20;;;;;;;;;;10317549;28;20060;-66
2021/09/14 02:02:09;;;;;;;13.00;6.65;;;;;;;;;;10318450;28;20044;-64
2021/09/14 02:33:57;;;;;;;16.30;7.53;;;;;;;;;;10316350;28;20431;-64
2021/09/14 02:39:11;;;;;;;14.68;8.20;;;;;;;;;;10316070;28;20072;-64
2021/09/14 02:44:25;;;;;;;16.63;7.05;;;;;;;;;;10315921;28;20421;-64
2021/09/14 02:59:58;;;;;;;11.80;6.00;;;;;;;;;;10316012;28;20430;-64
2021/09/14 03:04:56;;;;;;;13.05;7.20;;;;;;;;;;10315523;28;20044;-63
2021/09/14 03:09:56;;;;;;;20.60;7.28;;;;;;;;;;10314829;28;20044;-64
2021/09/14 03:14:55;;;;;;;12.43;6.90;;;;;;;;;;10315253;28;20048;-64
2021/09/14 03:19:53;;;;;;;16.90;8.35;;;;;;;;;;10315445;28;20044;-63
2021/09/14 03:24:51;;;;;;;15.02;8.07;;;;;;;;;;10317391;28;20037;-64
2021/09/14 03:29:51;;;;;;;20.17;8.25;;;;;;;;;;10323302;28;20072;-64
2021/09/14 03:34:50;;;;;;;14.27;7.53;;;;;;;;;;10323078;28;20049;-64
2021/09/14 03:39:48;;;;;;;12.45;7.18;;;;;;;;;;10322849;28;20045;-64
2021/09/14 03:44:52;;;;;;;12.63;7.13;;;;;;;;;;10322492;28;20059;-64
2021/09/14 03:49:51;;;;;;;11.38;7.43;;;;;;;;;;10324255;28;20067;-64
2021/09/14 03:54:49;;;;;;;15.95;6.95;;;;;;;;;;10322877;28;20052;-64
2021/09/14 03:59:48;;;;;;;12.23;6.85;;;;;;;;;;10324042;28;20045;-64
2021/09/14 04:05:06;;;;;;;13.35;7.25;;;;;;;;;;10328894;28;20064;-64
2021/09/14 04:10:05;;;;;;;13.38;6.80;;;;;;;;;;10339202;28;20429;-65
2021/09/14 04:15:04;;;;;;;19.77;7.05;;;;;;;;;;10321846;28;20053;-64
2021/09/14 04:20:04;;;;;;;15.13;8.18;;;;;;;;;;10321474;28;20047;-64
2021/09/14 04:25:07;;;;;;;22.00;7.63;;;;;;;;;;10323049;28;20048;-64
2021/09/14 04:30:08;;;;;;;59.28;44.53;;;;;;;;;;10322845;28;20454;-63
2021/09/14 04:35:09;;;;;;;25.20;12.05;;;;;;;;;;10324858;28;20044;-63
2021/09/14 04:40:09;;;;;;;23.90;10.85;;;;;;;;;;10320063;28;20060;-62
2021/09/14 04:45:09;;;;;;;28.30;14.77;;;;;;;;;;10320294;28;20036;-63
2021/09/14 04:50:10;;;;;;;49.38;27.55;;;;;;;;;;10320427;28;20103;-64
2021/09/14 04:55:09;;;;;;;31.23;16.98;;;;;;;;;;10319171;28;20052;-64
2021/09/14 05:00:11;;;;;;;20.27;11.40;;;;;;;;;;10314347;28;20533;-65
2021/09/14 05:05:11;;;;;;;32.08;23.55;;;;;;;;;;10312031;28;20522;-64
2021/09/14 05:10:10;;;;;;;73.65;59.28;;;;;;;;;;10313384;28;20080;-64
2021/09/14 05:15:15;;;;;;;43.95;32.88;;;;;;;;;;10314921;28;20556;-64
2021/09/14 05:20:28;;;;;;;25.92;14.00;;;;;;;;;;10319240;28;20313;-64
2021/09/14 05:25:26;;;;;;;26.15;17.75;;;;;;;;;;10318076;28;20068;-64
2021/09/14 05:30:27;;;;;;;82.43;65.28;;;;;;;;;;10320388;28;20076;-64
2021/09/14 05:35:28;;;;;;;75.93;45.10;;;;;;;;;;10320177;28;20044;-64
2021/09/14 05:40:29;;;;;;;34.83;17.50;;;;;;;;;;10317511;28;20545;-64
2021/09/14 05:45:34;;;;;;;29.02;14.75;;;;;;;;;;10318018;28;20052;-64
2021/09/14 05:50:32;;;;;;;28.17;12.40;;;;;;;;;;10317999;28;20482;-64
2021/09/14 05:55:32;;;;;;;32.30;13.48;;;;;;;;;;10317861;28;20063;-64
2021/09/14 06:00:32;;;;;;;25.90;12.48;;;;;;;;;;10317756;28;20490;-63
2021/09/14 06:05:31;;;;;;;38.45;14.80;;;;;;;;;;10317007;28;20049;-63
2021/09/14 06:10:32;;;;;;;27.27;12.13;;;;;;;;;;10316691;28;20080;-63
2021/09/14 06:15:44;;;;;;;40.20;13.15;;;;;;;;;;10317017;28;20532;-63
2021/09/14 06:20:48;;;;;;;39.05;12.80;;;;;;;;;;10316108;28;20060;-63
2021/09/14 06:25:49;;;;;;;45.47;16.48;;;;;;;;;;10316585;28;20055;-63
2021/09/14 06:30:47;;;;;;;46.05;16.88;;;;;;;;;;10316166;28;20076;-63
2021/09/14 06:35:50;;;;;;;41.40;15.75;;;;;;;;;;10315675;28;20059;-63
2021/09/14 06:40:55;;;;;;;32.05;12.30;;;;;;;;;;10315771;28;20059;-63
2021/09/14 06:45:58;;;;;;;20.02;10.52;;;;;;;;;;10315572;28;20426;-63
2021/09/14 06:51:03;;;;;;;15.70;9.68;;;;;;;;;;10314994;28;20513;-63
2021/09/14 06:56:02;;;;;;;17.92;9.85;;;;;;;;;;10316691;28;20037;-63
2021/09/14 07:01:07;;;;;;;14.60;9.20;;;;;;;;;;10314652;28;20064;-63
2021/09/14 07:06:06;;;;;;;17.92;12.63;;;;;;;;;;10316388;28;20075;-63
2021/09/14 07:11:06;;;;;;;13.30;9.25;;;;;;;;;;10314349;28;20072;-63
2021/09/14 07:16:04;;;;;;;14.15;9.48;;;;;;;;;;10316203;28;20048;-63
2021/09/14 07:21:03;;;;;;;14.00;10.10;;;;;;;;;;10316301;28;20045;-63
2021/09/14 07:26:01;;;;;;;11.40;9.50;;;;;;;;;;10316072;28;20611;-63
2021/09/14 07:31:01;;;;;;;12.10;9.30;;;;;;;;;;10316623;28;20096;-64
2021/09/14 07:35:59;;;;;;;16.08;9.82;;;;;;;;;;10315913;28;20048;-63
2021/09/14 07:40:58;;;;;;;24.92;17.25;;;;;;;;;;10315675;28;20044;-63
2021/09/14 07:45:57;;;;;;;38.47;12.23;;;;;;;;;;10317431;28;20428;-64
2021/09/14 07:50:57;;;;;;;20.48;14.57;;;;;;;;;;10325978;28;20059;-63
2021/09/14 07:55:55;;;;;;;16.45;9.95;;;;;;;;;;10317511;28;20513;-63
2021/09/14 08:00:54;;;;;;;16.00;8.90;;;;;;;;;;10315220;28;20059;-63
2021/09/14 08:05:53;;;;;;;12.25;9.07;;;;;;;;;;10315286;28;20040;-63
2021/09/14 08:10:53;;;;;;;14.13;9.20;;;;;;;;;;10314870;28;20072;-63
2021/09/14 08:16:06;;;;;;;15.02;9.32;;;;;;;;;;10327278;28;20037;-63
2021/09/14 08:21:04;;;;;;;12.80;9.60;;;;;;;;;;10337471;28;20049;-63
2021/09/14 08:26:04;;;;;;;13.50;9.10;;;;;;;;;;10322739;28;20049;-63
2021/09/14 08:31:03;;;;;;;16.65;9.25;;;;;;;;;;10321880;28;20080;-63
2021/09/14 08:36:01;;;;;;;16.58;9.98;;;;;;;;;;10321861;28;20562;-63
2021/09/14 08:41:00;;;;;;;12.02;8.88;;;;;;;;;;10320589;28;20053;-63
2021/09/14 08:46:00;;;;;;;13.93;9.82;;;;;;;;;;10321557;28;20075;-64
2021/09/14 08:50:59;;;;;;;12.07;9.13;;;;;;;;;;10321414;28;20083;-63
2021/09/14 08:55:57;;;;;;;17.40;8.90;;;;;;;;;;10320993;28;20049;-63
2021/09/14 09:00:56;;;;;;;13.82;9.10;;;;;;;;;;10320796;28;20055;-63
2021/09/14 09:05:57;;;;;;;10.13;8.57;;;;;;;;;;10320667;28;20044;-63
2021/09/14 09:10:59;;;;;;;16.02;9.27;;;;;;;;;;10320256;28;20273;-63
2021/09/14 09:15:59;;;;;;;11.40;9.43;;;;;;;;;;10320185;28;20448;-63
2021/09/14 09:21:02;;;;;;;15.50;9.50;;;;;;;;;;10320013;28;20048;-64
2021/09/14 09:26:05;;;;;;;9.85;7.85;;;;;;;;;;10319475;28;20454;-64
2021/09/14 09:31:09;;;;;;;14.45;8.80;;;;;;;;;;10319387;28;20553;-63
2021/09/14 09:36:09;;;;;;;14.00;10.85;;;;;;;;;;10319477;28;20040;-63
2021/09/14 09:41:07;;;;;;;13.30;8.98;;;;;;;;;;10319628;28;20051;-63
2021/09/14 09:46:07;;;;;;;18.83;8.63;;;;;;;;;;10318822;28;20440;-63
2021/09/14 09:51:05;;;;;;;12.07;9.38;;;;;;;;;;10319058;28;20072;-63
2021/09/14 09:56:06;;;;;;;16.67;9.23;;;;;;;;;;10319124;28;20056;-63
2021/09/14 10:01:07;;;;;;;16.50;9.73;;;;;;;;;;10319353;28;21261;-63
2021/09/14 10:06:09;;;;;;;16.75;10.07;;;;;;;;;;10318659;28;20048;-63
2021/09/14 10:11:09;;;;;;;22.13;10.35;;;;;;;;;;10318079;28;20494;-63
2021/09/14 10:16:09;;;;;;;16.40;8.88;;;;;;;;;;10317723;28;20040;-64
2021/09/14 10:21:18;;;;;;;14.32;8.68;;;;;;;;;;10317537;28;20075;-63
2021/09/14 10:26:18;;;;;;;12.25;7.10;;;;;;;;;;10317443;28;20079;-63
2021/09/14 10:31:23;;;;;;;11.77;7.50;;;;;;;;;;10317675;28;20080;-64
2021/09/14 10:36:21;;;;;;;16.00;7.07;;;;;;;;;;10316397;28;20044;-64
2021/09/14 10:41:21;;;;;;;8.45;6.75;;;;;;;;;;10317379;28;20481;-64
2021/09/14 10:46:21;;;;;;;13.77;8.07;;;;;;;;;;10316885;28;20075;-63
2021/09/14 10:51:19;;;;;;;9.70;6.93;;;;;;;;;;10316480;28;20087;-63
2021/09/14 10:56:18;;;;;;;9.15;7.30;;;;;;;;;;10317143;28;20498;-63
2021/09/14 11:01:23;;;;;;;16.00;7.15;;;;;;;;;;10316796;28;20072;-64
2021/09/14 11:06:26;;;;;;;10.60;7.00;;;;;;;;;;10316466;28;20047;-63
2021/09/14 11:11:25;;;;;;;12.35;6.38;;;;;;;;;;10316771;28;20079;-63
2021/09/14 11:16:24;;;;;;;12.50;7.03;;;;;;;;;;10316763;28;20044;-63
2021/09/14 11:21:23;;;;;;;11.77;6.30;;;;;;;;;;10316667;28;20094;-63
2021/09/14 11:26:23;;;;;;;10.77;6.65;;;;;;;;;;10316018;28;20045;-63
2021/09/14 11:31:21;;;;;;;13.00;7.65;;;;;;;;;;10327923;28;20053;-63
2021/09/14 11:36:21;;;;;;;11.57;6.88;;;;;;;;;;10320903;28;20068;-63
2021/09/14 11:41:19;;;;;;;12.65;7.03;;;;;;;;;;10316036;28;20045;-63
2021/09/14 11:46:18;;;;;;;11.75;7.68;;;;;;;;;;10317065;28;20049;-63
2021/09/14 11:51:16;;;;;;;11.20;7.18;;;;;;;;;;10323605;28;20474;-63
2021/09/14 11:56:17;;;;;;;12.57;7.65;;;;;;;;;;10323387;28;20479;-63
2021/09/14 12:01:16;;;;;;;8.00;6.35;;;;;;;;;;10340263;28;20473;-63
2021/09/14 12:06:22;;;;;;;7.07;5.20;;;;;;;;;;10322795;28;20051;-62
2021/09/14 12:11:26;;;;;;;8.00;5.18;;;;;;;;;;10322720;28;20079;-62
2021/09/14 12:16:27;;;;;;;8.25;5.70;;;;;;;;;;10322789;28;20041;-62
2021/09/14 12:21:26;;;;;;;11.73;7.63;;;;;;;;;;10322243;28;20048;-63
2021/09/14 12:26:28;;;;;;;12.82;6.43;;;;;;;;;;10322611;28;20052;-64
2021/09/14 12:31:26;;;;;;;7.32;6.05;;;;;;;;;;10322479;28;20091;-64
2021/09/14 12:36:25;;;;;;;8.52;6.45;;;;;;;;;;10321892;28;20056;-64
2021/09/14 12:41:24;;;;;;;10.38;5.90;;;;;;;;;;10321527;28;20442;-63
2021/09/14 12:46:23;;;;;;;8.73;6.40;;;;;;;;;;10321121;28;20087;-63
2021/09/14 12:51:22;;;;;;;17.88;6.95;;;;;;;;;;10321403;28;20096;-63
2021/09/14 12:56:21;;;;;;;12.50;7.60;;;;;;;;;;10321560;28;20048;-64
2021/09/14 13:01:21;;;;;;;20.70;7.60;;;;;;;;;;10320013;28;20045;-63
2021/09/14 13:06:20;;;;;;;10.32;6.43;;;;;;;;;;10320859;28;20059;-63
2021/09/14 13:11:19;;;;;;;12.50;6.95;;;;;;;;;;10320701;28;20075;-64
2021/09/14 13:16:17;;;;;;;12.38;6.63;;;;;;;;;;10320733;28;20045;-64
2021/09/14 13:21:16;;;;;;;11.45;7.18;;;;;;;;;;10320501;28;20055;-64
2021/09/14 13:26:16;;;;;;;16.23;7.13;;;;;;;;;;10319835;28;20063;-64
2021/09/14 13:31:15;;;;;;;12.30;7.00;;;;;;;;;;10319643;28;20087;-63
2021/09/14 13:36:15;;;;;;;15.57;8.45;;;;;;;;;;10319569;28;20049;-63
2021/09/14 13:41:15;;;;;;;11.70;6.75;;;;;;;;;;10319348;28;20041;-63
2021/09/14 13:46:15;;;;;;;8.60;7.15;;;;;;;;;;10319084;28;20033;-63
2021/09/14 13:51:13;;;;;;;13.05;7.57;;;;;;;;;;10318544;28;20076;-63
2021/09/14 13:56:13;;;;;;;8.30;6.45;;;;;;;;;;10318972;28;20044;-63
2021/09/14 14:01:11;;;;;;;16.73;7.68;;;;;;;;;;10318244;28;20076;-63
2021/09/14 14:06:12;;;;;;;11.55;7.68;;;;;;;;;;10318400;28;20045;-63
2021/09/14 14:11:11;;;;;;;13.38;7.05;;;;;;;;;;10316794;28;20080;-63
2021/09/14 14:16:09;;;;;;;9.55;6.55;;;;;;;;;;10317657;28;20080;-63
2021/09/14 14:21:07;;;;;;;12.48;7.50;;;;;;;;;;10317639;28;20482;-63
2021/09/14 14:26:07;;;;;;;13.82;8.48;;;;;;;;;;10317476;28;20461;-63
2021/09/14 14:31:06;;;;;;;11.50;7.53;;;;;;;;;;10316966;28;20071;-63
2021/09/14 14:36:05;;;;;;;14.27;8.35;;;;;;;;;;10317178;28;20469;-63
2021/09/14 14:41:03;;;;;;;10.43;7.50;;;;;;;;;;10316868;28;20429;-63
2021/09/14 14:46:03;;;;;;;13.32;6.63;;;;;;;;;;10317371;28;20049;-63
2021/09/14 14:51:01;;;;;;;13.98;7.60;;;;;;;;;;10316385;28;20112;-63
2021/09/14 14:56:00;;;;;;;13.60;7.90;;;;;;;;;;10317271;28;20491;-63
2021/09/14 15:01:00;;;;;;;11.80;6.72;;;;;;;;;;10316537;28;20049;-63
2021/09/14 15:06:01;;;;;;;11.95;6.53;;;;;;;;;;10317091;28;20052;-63
2021/09/14 15:10:59;;;;;;;11.50;7.13;;;;;;;;;;10316366;28;20072;-63
2021/09/14 15:15:57;;;;;;;14.50;11.55;;;;;;;;;;10348372;28;20052;-63
2021/09/14 15:20:56;;;;;;;12.95;7.00;;;;;;;;;;10316676;28;20457;-63
2021/09/14 15:25:57;;;;;;;23.50;8.13;;;;;;;;;;10324590;28;20528;-63
2021/09/14 15:30:56;;;;;;;20.17;8.32;;;;;;;;;;10324204;28;20075;-63
2021/09/14 15:35:55;;;;;;;19.75;7.97;;;;;;;;;;10324071;28;20051;-63
2021/09/14 15:40:54;;;;;;;24.33;8.52;;;;;;;;;;10332128;28;20052;-63
2021/09/14 15:45:54;;;;;;;12.05;7.40;;;;;;;;;;10338841;28;20053;-63
2021/09/14 15:50:52;;;;;;;14.85;8.57;;;;;;;;;;10323207;28;20082;-63
2021/09/14 15:55:51;;;;;;;20.70;11.05;;;;;;;;;;10323534;28;20044;-63
2021/09/14 16:00:50;;;;;;;25.77;11.13;;;;;;;;;;10322731;28;20441;-63
2021/09/14 16:05:50;;;;;;;18.20;8.73;;;;;;;;;;10322654;28;20451;-63
2021/09/14 16:10:48;;;;;;;12.40;7.97;;;;;;;;;;10322736;28;20047;-64
2021/09/14 16:15:46;;;;;;;13.75;8.32;;;;;;;;;;10322053;28;20056;-63
2021/09/14 16:20:47;;;;;;;13.52;8.18;;;;;;;;;;10322321;28;20075;-62
2021/09/14 16:25:47;;;;;;;15.48;8.30;;;;;;;;;;10321763;28;20052;-64
2021/09/14 16:30:46;;;;;;;20.65;7.82;;;;;;;;;;10321762;28;20037;-63
2021/09/14 16:35:44;;;;;;;15.43;8.32;;;;;;;;;;10321087;28;20525;-64
2021/09/14 16:40:42;;;;;;;12.65;7.72;;;;;;;;;;10321564;28;20094;-64
2021/09/14 16:45:44;;;;;;;17.83;7.93;;;;;;;;;;10321295;28;20453;-65
2021/09/14 16:50:43;;;;;;;22.48;11.82;;;;;;;;;;10321494;28;20040;-64
2021/09/14 16:55:41;;;;;;;18.15;13.55;;;;;;;;;;10320800;28;20079;-64
2021/09/14 17:00:40;;;;;;;15.10;13.45;;;;;;;;;;10321820;28;20049;-63
2021/09/14 17:05:40;;;;;;;14.85;8.38;;;;;;;;;;10321825;28;20044;-65
2021/09/14 17:10:38;;;;;;;15.85;12.70;;;;;;;;;;10321047;28;20049;-64
2021/09/14 17:15:37;;;;;;;15.57;8.13;;;;;;;;;;10321360;28;20088;-64
2021/09/14 17:20:35;;;;;;;17.70;9.93;;;;;;;;;;10321207;28;20094;-64
2021/09/14 17:25:35;;;;;;;13.50;9.07;;;;;;;;;;10320922;28;20053;-64
2021/09/14 17:30:33;;;;;;;16.40;10.10;;;;;;;;;;10320738;28;20041;-64
2021/09/14 17:35:31;;;;;;;13.73;8.60;;;;;;;;;;10320399;28;20075;-63
2021/09/14 17:40:30;;;;;;;14.45;8.48;;;;;;;;;;10320293;28;20059;-64
2021/09/14 17:45:30;;;;;;;14.43;7.43;;;;;;;;;;10319929;28;20036;-64
2021/09/14 17:50:28;;;;;;;10.13;7.60;;;;;;;;;;10320280;28;20044;-64
2021/09/14 17:55:28;;;;;;;11.70;7.72;;;;;;;;;;10318367;28;20485;-64
2021/09/14 18:00:26;;;;;;;10.25;6.45;;;;;;;;;;10313241;28;20071;-65
2021/09/14 18:05:27;;;;;;;10.40;6.55;;;;;;;;;;10304824;28;20053;-64
2021/09/14 18:10:25;;;;;;;15.48;7.50;;;;;;;;;;10297852;28;20041;-63
2021/09/14 18:15:23;;;;;;;9.93;6.90;;;;;;;;;;10300988;28;20553;-64
2021/09/14 18:20:22;;;;;;;12.07;7.00;;;;;;;;;;10291691;28;20073;-63
2021/09/14 18:25:21;;;;;;;15.30;7.68;;;;;;;;;;10288288;28;20076;-64
2021/09/14 18:30:20;;;;;;;8.73;6.28;;;;;;;;;;10274114;28;20068;-65
2021/09/14 18:35:18;;;;;;;19.30;6.85;;;;;;;;;;10275924;28;20072;-66
2021/09/14 18:40:16;;;;;;;11.13;7.03;;;;;;;;;;10286506;28;20166;-66
2021/09/14 18:45:16;;;;;;;7.13;5.78;;;;;;;;;;10299020;28;20075;-66
2021/09/14 18:50:14;;;;;;;12.57;6.60;;;;;;;;;;10303861;28;20068;-65
2021/09/14 18:55:13;;;;;;;10.40;6.57;;;;;;;;;;10302996;28;20087;-65
2021/09/14 19:00:12;;;;;;;10.38;6.38;;;;;;;;;;10317479;28;20051;-64
2021/09/14 19:05:11;;;;;;;19.85;7.07;;;;;;;;;;10339337;28;20051;-64
2021/09/14 19:10:11;;;;;;;13.02;6.38;;;;;;;;;;10327667;28;20052;-64
2021/09/14 19:15:11;;;;;;;13.00;6.93;;;;;;;;;;10317593;28;20094;-64
2021/09/14 19:20:10;;;;;;;14.68;6.70;;;;;;;;;;10317139;28;20079;-64
2021/09/14 19:25:10;;;;;;;13.35;7.47;;;;;;;;;;10317445;28;20045;-64
2021/09/14 19:30:09;;;;;;;10.80;7.13;;;;;;;;;;10316840;28;20771;-64
2021/09/14 19:35:07;;;;;;;12.23;8.98;;;;;;;;;;10319007;28;20044;-64
2021/09/14 19:40:06;;;;;;;13.02;7.38;;;;;;;;;;10317359;28;20044;-65
2021/09/14 19:45:07;;;;;;;13.50;7.65;;;;;;;;;;10316911;28;20071;-64
2021/09/14 19:50:05;;;;;;;10.63;6.25;;;;;;;;;;10316438;28;20043;-65
2021/09/14 19:55:04;;;;;;;10.93;6.85;;;;;;;;;;10316204;28;20061;-64
2021/09/14 20:00:03;;;;;;;12.77;6.63;;;;;;;;;;10316503;28;20056;-65
2021/09/14 20:05:10;;;;;;;10.48;6.50;;;;;;;;;;10317763;28;20052;-63
2021/09/14 20:10:09;;;;;;;9.57;6.38;;;;;;;;;;10321582;28;20045;-64
2021/09/14 20:15:08;;;;;;;10.85;6.68;;;;;;;;;;10323316;28;20056;-65
2021/09/14 20:20:07;;;;;;;8.13;6.07;;;;;;;;;;10323764;28;20044;-65
2021/09/14 20:25:07;;;;;;;7.00;5.72;;;;;;;;;;10323195;28;20514;-62
2021/09/14 20:30:07;;;;;;;9.23;5.93;;;;;;;;;;10321998;28;20043;-63
2021/09/14 20:35:07;;;;;;;7.07;5.50;;;;;;;;;;10322861;28;20083;-65
2021/09/14 20:40:08;;;;;;;8.32;4.90;;;;;;;;;;10322586;28;20049;-62
2021/09/14 20:45:07;;;;;;;9.30;6.15;;;;;;;;;;10322609;28;20063;-63
2021/09/14 20:50:06;;;;;;;10.00;8.52;;;;;;;;;;10322774;28;20051;-64
2021/09/14 20:55:05;;;;;;;10.75;9.05;;;;;;;;;;10320052;28;20095;-64
2021/09/14 21:00:11;;;;;;;9.63;8.40;;;;;;;;;;10321947;28;20059;-63
2021/09/14 21:05:10;;;;;;;10.07;6.72;;;;;;;;;;10321990;28;20135;-63
2021/09/14 21:10:09;;;;;;;9.68;6.82;;;;;;;;;;10321675;28;20040;-64
2021/09/14 21:15:10;;;;;;;9.55;7.03;;;;;;;;;;10321452;28;20147;-65
2021/09/14 21:20:09;;;;;;;14.75;6.40;;;;;;;;;;10321025;28;20087;-64
2021/09/14 21:25:08;;;;;;;13.27;6.75;;;;;;;;;;10321037;28;20083;-65
2021/09/14 21:30:08;;;;;;;10.95;7.20;;;;;;;;;;10321134;28;20043;-65
2021/09/14 21:35:08;;;;;;;9.05;7.22;;;;;;;;;;10320863;28;20090;-64
2021/09/14 21:40:07;;;;;;;12.35;7.30;;;;;;;;;;10320578;28;20056;-64
2021/09/14 21:45:07;;;;;;;10.05;7.18;;;;;;;;;;10320479;28;20064;-64
2021/09/14 21:50:07;;;;;;;11.25;7.63;;;;;;;;;;10320126;28;20403;-64
2021/09/14 21:55:07;;;;;;;16.90;8.00;;;;;;;;;;10318579;28;20530;-64
2021/09/14 22:00:07;;;;;;;16.00;9.30;;;;;;;;;;10319633;28;20048;-65
2021/09/14 22:05:10;;;;;;;11.27;8.50;;;;;;;;;;10320791;28;20103;-65
2021/09/14 22:10:10;;;;;;;21.98;9.77;;;;;;;;;;10318685;28;20049;-64
2021/09/14 22:15:09;;;;;;;16.63;10.63;;;;;;;;;;10319072;28;20080;-64
2021/09/14 22:20:08;;;;;;;12.80;9.65;;;;;;;;;;10319026;28;20402;-64
2021/09/14 22:25:08;;;;;;;12.88;8.70;;;;;;;;;;10317669;28;20068;-64
2021/09/14 22:30:09;;;;;;;21.48;7.53;;;;;;;;;;10318384;28;20043;-64
2021/09/14 22:35:08;;;;;;;16.67;7.75;;;;;;;;;;10317993;28;20529;-65
2021/09/14 22:40:07;;;;;;;13.90;8.63;;;;;;;;;;10318411;28;20508;-64
2021/09/14 22:45:06;;;;;;;12.27;7.63;;;;;;;;;;10318251;28;20516;-64
2021/09/14 22:50:06;;;;;;;14.15;6.75;;;;;;;;;;10317774;28;20083;-64
2021/09/14 22:55:05;;;;;;;14.70;7.00;;;;;;;;;;10316716;28;20092;-65
2021/09/14 23:00:04;;;;;;;10.05;6.38;;;;;;;;;;10317993;28;20049;-65
2021/09/14 23:05:03;;;;;;;8.80;6.10;;;;;;;;;;10332605;28;20046;-64
2021/09/14 23:10:02;;;;;;;12.43;5.65;;;;;;;;;;10342235;28;20052;-64
2021/09/14 23:15:01;;;;;;;18.42;6.30;;;;;;;;;;10317508;28;20044;-64
2021/09/14 23:19:59;;;;;;;10.48;5.15;;;;;;;;;;10317221;28;20463;-64
2021/09/14 23:24:57;;;;;;;9.48;6.47;;;;;;;;;;10317110;28;20481;-64
2021/09/14 23:29:57;;;;;;;9.98;5.97;;;;;;;;;;10317166;28;20040;-64
2021/09/14 23:34:55;;;;;;;17.08;6.40;;;;;;;;;;10333914;28;20037;-65
2021/09/14 23:39:53;;;;;;;15.05;6.95;;;;;;;;;;10333709;28;20048;-64
2021/09/14 23:44:52;;;;;;;16.88;7.93;;;;;;;;;;10322268;28;20052;-64
2021/09/14 23:49:51;;;;;;;9.98;5.95;;;;;;;;;;10324831;28;20451;-64
2021/09/14 23:54:50;;;;;;;10.27;6.25;;;;;;;;;;10323467;28;20080;-64
2021/09/14 23:59:48;;;;;;;12.02;6.95;;;;;;;;;;10324250;28;20052;-65
